createdAt,value
2018-07-08T00:00:00.515Z,0
2018-07-08T00:01:00.538Z,0
2018-07-08T00:02:00.833Z,0
2018-07-08T00:03:00.867Z,0
2018-07-08T00:04:00.899Z,0
2018-07-08T00:05:00.906Z,0
2018-07-08T00:06:00.670Z,0
2018-07-08T00:07:00.683Z,0
2018-07-08T00:08:00.975Z,0
2018-07-08T00:09:00.738Z,0
2018-07-08T00:10:00.762Z,0
2018-07-08T00:11:01.044Z,0
2018-07-08T00:12:01.082Z,0
2018-07-08T00:13:01.107Z,0
2018-07-08T00:14:00.858Z,0
2018-07-08T00:15:00.877Z,0
2018-07-08T00:16:00.901Z,0
2018-07-08T00:17:00.934Z,0
2018-07-08T00:18:00.977Z,0
2018-07-08T00:19:00.975Z,0
2018-07-08T00:20:01.268Z,0
2018-07-08T00:21:01.026Z,0
2018-07-08T00:22:01.322Z,0
2018-07-08T00:23:01.074Z,0
2018-07-08T00:24:01.099Z,0
2018-07-08T00:25:01.122Z,0
2018-07-08T00:26:01.443Z,0
2018-07-08T00:27:01.440Z,0
2018-07-08T00:28:01.212Z,0
2018-07-08T00:29:00.685Z,0
2018-07-08T00:30:01.516Z,0
2018-07-08T00:31:01.532Z,0
2018-07-08T00:32:01.566Z,0
2018-07-08T00:33:01.498Z,0
2018-07-08T00:34:01.611Z,0
2018-07-08T00:35:01.364Z,0
2018-07-08T00:36:01.384Z,0
2018-07-08T00:37:01.420Z,0
2018-07-08T00:38:01.440Z,0
2018-07-08T00:39:01.460Z,0
2018-07-08T00:40:02.083Z,0
2018-07-08T00:41:01.781Z,0
2018-07-08T00:42:01.535Z,0
2018-07-08T00:43:01.872Z,0
2018-07-08T00:44:01.312Z,0
2018-07-08T00:45:01.340Z,0
2018-07-08T00:46:01.361Z,0
2018-07-08T00:47:01.660Z,0
2018-07-08T00:48:02.001Z,0
2018-07-08T00:49:01.970Z,0
2018-07-08T00:50:02.006Z,0
2018-07-08T00:51:01.752Z,0
2018-07-08T00:52:02.044Z,0
2018-07-08T00:53:01.796Z,0
2018-07-08T00:54:02.097Z,0
2018-07-08T00:55:01.307Z,0
2018-07-08T00:56:01.340Z,0
2018-07-08T00:57:02.165Z,0
2018-07-08T00:58:02.182Z,0
2018-07-08T00:59:01.939Z,0
2018-07-08T01:00:01.698Z,0
2018-07-08T01:01:02.263Z,0
2018-07-08T01:02:02.284Z,0
2018-07-08T01:03:02.038Z,0
2018-07-08T01:04:02.338Z,0
2018-07-08T01:05:02.349Z,0
2018-07-08T01:06:02.101Z,0
2018-07-08T01:07:02.401Z,0
2018-07-08T01:08:01.939Z,0
2018-07-08T01:09:02.448Z,0
2018-07-08T01:10:02.206Z,0
2018-07-08T01:11:02.502Z,0
2018-07-08T01:12:02.519Z,0
2018-07-08T01:13:02.299Z,0
2018-07-08T01:14:02.571Z,0
2018-07-08T01:15:01.786Z,0
2018-07-08T01:16:02.348Z,0
2018-07-08T01:17:02.367Z,0
2018-07-08T01:18:02.127Z,0
2018-07-08T01:19:02.693Z,0
2018-07-08T01:20:02.705Z,0
2018-07-08T01:21:02.493Z,0
2018-07-08T01:22:02.485Z,0
2018-07-08T01:23:02.521Z,0
2018-07-08T01:24:02.812Z,0
2018-07-08T01:25:02.826Z,0
2018-07-08T01:26:02.843Z,0
2018-07-08T01:27:02.607Z,0
2018-07-08T01:28:02.897Z,0
2018-07-08T01:29:02.919Z,0
2018-07-08T01:30:02.956Z,0
2018-07-08T01:31:02.700Z,0
2018-07-08T01:32:02.726Z,0
2018-07-08T01:33:03.017Z,0
2018-07-08T01:34:02.775Z,0
2018-07-08T01:35:03.065Z,0
2018-07-08T01:36:02.867Z,0
2018-07-08T01:37:02.574Z,0
2018-07-08T01:38:02.612Z,0
2018-07-08T01:39:03.159Z,0
2018-07-08T01:40:03.177Z,0
2018-07-08T01:41:03.221Z,0
2018-07-08T01:42:02.689Z,0
2018-07-08T01:43:03.249Z,0
2018-07-08T01:44:03.011Z,0
2018-07-08T01:45:03.297Z,0
2018-07-08T01:46:03.322Z,0
2018-07-08T01:47:03.338Z,0
2018-07-08T01:48:03.118Z,0
2018-07-08T01:49:03.382Z,0
2018-07-08T01:50:03.167Z,0
2018-07-08T01:51:03.441Z,0
2018-07-08T01:52:03.197Z,0
2018-07-08T01:53:03.211Z,0
2018-07-08T01:54:03.513Z,0
2018-07-08T01:55:03.583Z,0
2018-07-08T01:56:03.557Z,0
2018-07-08T01:57:03.573Z,0
2018-07-08T01:58:03.340Z,0
2018-07-08T01:59:03.357Z,0
2018-07-08T02:00:03.641Z,0
2018-07-08T02:01:03.407Z,0
2018-07-08T02:02:03.156Z,0
2018-07-08T02:03:03.706Z,0
2018-07-08T02:04:03.485Z,0
2018-07-08T02:05:03.761Z,0
2018-07-08T02:06:03.535Z,0
2018-07-08T02:07:03.614Z,0
2018-07-08T02:08:03.557Z,0
2018-07-08T02:09:03.589Z,0
2018-07-08T02:10:03.618Z,0
2018-07-08T02:11:03.675Z,0
2018-07-08T02:12:03.651Z,0
2018-07-08T02:13:03.950Z,0
2018-07-08T02:14:03.455Z,0
2018-07-08T02:15:03.998Z,0
2018-07-08T02:16:04.018Z,0
2018-07-08T02:17:03.769Z,0
2018-07-08T02:18:04.061Z,0
2018-07-08T02:19:03.823Z,0
2018-07-08T02:20:03.579Z,0
2018-07-08T02:21:03.602Z,0
2018-07-08T02:22:04.159Z,0
2018-07-08T02:23:03.922Z,0
2018-07-08T02:24:03.952Z,0
2018-07-08T02:25:03.695Z,0
2018-07-08T02:26:03.977Z,0
2018-07-08T02:27:04.002Z,0
2018-07-08T02:28:04.301Z,0
2018-07-08T02:29:04.327Z,0
2018-07-08T02:30:04.075Z,0
2018-07-08T02:31:04.399Z,0
2018-07-08T02:32:04.118Z,0
2018-07-08T02:33:04.192Z,0
2018-07-08T02:34:03.909Z,0
2018-07-08T02:35:03.918Z,0
2018-07-08T02:36:04.226Z,0
2018-07-08T02:37:03.697Z,0
2018-07-08T02:38:04.251Z,0
2018-07-08T02:39:03.752Z,4
2018-07-08T02:40:04.596Z,4
2018-07-08T02:41:04.607Z,0
2018-07-08T02:42:04.629Z,0
2018-07-08T02:43:04.371Z,4
2018-07-08T02:44:04.672Z,4
2018-07-08T02:45:04.427Z,4
2018-07-08T02:46:04.440Z,4
2018-07-08T02:47:04.193Z,4
2018-07-08T02:48:04.754Z,8
2018-07-08T02:49:04.515Z,8
2018-07-08T02:50:04.816Z,4
2018-07-08T02:51:04.560Z,8
2018-07-08T02:52:04.853Z,8
2018-07-08T02:53:04.913Z,8
2018-07-08T02:54:04.630Z,8
2018-07-08T02:55:05.136Z,12
2018-07-08T02:56:04.942Z,12
2018-07-08T02:57:04.694Z,16
2018-07-08T02:58:04.715Z,12
2018-07-08T02:59:04.472Z,16
2018-07-08T03:00:04.496Z,20
2018-07-08T03:01:04.784Z,20
2018-07-08T03:02:04.816Z,20
2018-07-08T03:03:04.847Z,24
2018-07-08T03:04:05.137Z,24
2018-07-08T03:05:05.343Z,24
2018-07-08T03:06:04.897Z,24
2018-07-08T03:07:04.933Z,28
2018-07-08T03:08:04.679Z,28
2018-07-08T03:09:05.245Z,32
2018-07-08T03:10:04.449Z,32
2018-07-08T03:11:05.287Z,36
2018-07-08T03:12:05.036Z,36
2018-07-08T03:13:05.061Z,36
2018-07-08T03:14:05.343Z,40
2018-07-08T03:15:04.837Z,40
2018-07-08T03:16:05.409Z,44
2018-07-08T03:17:05.139Z,44
2018-07-08T03:18:05.196Z,52
2018-07-08T03:19:04.923Z,52
2018-07-08T03:20:05.216Z,52
2018-07-08T03:21:04.962Z,56
2018-07-08T03:22:05.268Z,60
2018-07-08T03:23:05.548Z,60
2018-07-08T03:24:05.077Z,64
2018-07-08T03:25:05.598Z,64
2018-07-08T03:26:05.351Z,68
2018-07-08T03:27:05.368Z,72
2018-07-08T03:28:05.658Z,76
2018-07-08T03:29:05.682Z,76
2018-07-08T03:30:05.455Z,80
2018-07-08T03:31:05.733Z,84
2018-07-08T03:32:05.768Z,84
2018-07-08T03:33:05.774Z,88
2018-07-08T03:34:05.798Z,92
2018-07-08T03:35:05.547Z,92
2018-07-08T03:36:05.594Z,92
2018-07-08T03:37:05.596Z,96
2018-07-08T03:38:05.912Z,100
2018-07-08T03:39:05.912Z,104
2018-07-08T03:40:05.704Z,108
2018-07-08T03:41:05.419Z,108
2018-07-08T03:42:05.707Z,112
2018-07-08T03:43:05.459Z,116
2018-07-08T03:44:06.029Z,120
2018-07-08T03:45:06.045Z,116
2018-07-08T03:46:05.824Z,120
2018-07-08T03:47:05.282Z,124
2018-07-08T03:48:06.105Z,124
2018-07-08T03:49:05.864Z,128
2018-07-08T03:50:05.891Z,132
2018-07-08T03:51:05.912Z,128
2018-07-08T03:52:05.669Z,132
2018-07-08T03:53:05.958Z,132
2018-07-08T03:54:05.980Z,136
2018-07-08T03:55:06.261Z,140
2018-07-08T03:56:06.017Z,140
2018-07-08T03:57:06.047Z,148
2018-07-08T03:58:05.793Z,148
2018-07-08T03:59:06.081Z,152
2018-07-08T04:00:06.121Z,160
2018-07-08T04:01:06.134Z,164
2018-07-08T04:02:06.421Z,160
2018-07-08T04:03:06.175Z,156
2018-07-08T04:04:06.193Z,160
2018-07-08T04:05:06.222Z,160
2018-07-08T04:06:06.241Z,164
2018-07-08T04:07:06.535Z,164
2018-07-08T04:08:06.562Z,168
2018-07-08T04:09:06.316Z,168
2018-07-08T04:10:06.341Z,172
2018-07-08T04:11:06.359Z,172
2018-07-08T04:12:06.381Z,172
2018-07-08T04:13:06.672Z,176
2018-07-08T04:14:06.686Z,172
2018-07-08T04:15:06.461Z,176
2018-07-08T04:16:05.932Z,176
2018-07-08T04:17:06.220Z,180
2018-07-08T04:18:06.523Z,184
2018-07-08T04:19:06.529Z,188
2018-07-08T04:20:06.568Z,188
2018-07-08T04:21:06.841Z,188
2018-07-08T04:22:06.597Z,192
2018-07-08T04:23:06.354Z,196
2018-07-08T04:24:06.380Z,192
2018-07-08T04:25:06.395Z,196
2018-07-08T04:26:06.415Z,196
2018-07-08T04:27:06.171Z,196
2018-07-08T04:28:07.018Z,196
2018-07-08T04:29:06.485Z,192
2018-07-08T04:30:06.513Z,192
2018-07-08T04:31:07.071Z,196
2018-07-08T04:32:07.091Z,200
2018-07-08T04:33:07.115Z,212
2018-07-08T04:34:07.134Z,216
2018-07-08T04:35:06.633Z,212
2018-07-08T04:36:06.911Z,212
2018-07-08T04:37:07.197Z,212
2018-07-08T04:38:07.229Z,224
2018-07-08T04:39:07.247Z,224
2018-07-08T04:40:07.288Z,236
2018-07-08T04:41:07.287Z,256
2018-07-08T04:42:07.344Z,268
2018-07-08T04:43:07.066Z,288
2018-07-08T04:44:07.087Z,304
2018-07-08T04:45:07.377Z,324
2018-07-08T04:46:07.399Z,348
2018-07-08T04:47:07.417Z,380
2018-07-08T04:48:07.172Z,408
2018-07-08T04:49:06.930Z,432
2018-07-08T04:50:07.220Z,436
2018-07-08T04:51:07.505Z,424
2018-07-08T04:52:07.530Z,408
2018-07-08T04:53:07.307Z,396
2018-07-08T04:54:07.305Z,392
2018-07-08T04:55:07.595Z,396
2018-07-08T04:56:07.358Z,420
2018-07-08T04:57:07.636Z,460
2018-07-08T04:58:07.137Z,500
2018-07-08T04:59:07.492Z,524
2018-07-08T05:00:07.176Z,532
2018-07-08T05:01:08.305Z,528
2018-07-08T05:02:07.502Z,540
2018-07-08T05:03:07.775Z,508
2018-07-08T05:04:07.285Z,488
2018-07-08T05:05:07.284Z,484
2018-07-08T05:06:07.854Z,492
2018-07-08T05:07:07.591Z,516
2018-07-08T05:08:07.879Z,536
2018-07-08T05:09:07.901Z,536
2018-07-08T05:10:07.928Z,532
2018-07-08T05:11:07.407Z,532
2018-07-08T05:12:07.206Z,536
2018-07-08T05:13:08.002Z,552
2018-07-08T05:14:08.015Z,612
2018-07-08T05:15:07.773Z,620
2018-07-08T05:16:07.557Z,616
2018-07-08T05:17:08.082Z,608
2018-07-08T05:18:08.113Z,644
2018-07-08T05:19:07.857Z,616
2018-07-08T05:20:07.890Z,636
2018-07-08T05:21:08.173Z,656
2018-07-08T05:22:07.916Z,604
2018-07-08T05:23:07.407Z,616
2018-07-08T05:24:07.710Z,640
2018-07-08T05:25:07.991Z,672
2018-07-08T05:26:08.295Z,692
2018-07-08T05:27:08.299Z,700
2018-07-08T05:28:08.060Z,716
2018-07-08T05:29:08.368Z,712
2018-07-08T05:30:08.112Z,720
2018-07-08T05:31:08.398Z,796
2018-07-08T05:32:07.890Z,684
2018-07-08T05:33:08.189Z,604
2018-07-08T05:34:08.245Z,560
2018-07-08T05:35:08.475Z,524
2018-07-08T05:36:07.961Z,504
2018-07-08T05:37:07.981Z,496
2018-07-08T05:38:08.006Z,500
2018-07-08T05:39:08.296Z,504
2018-07-08T05:40:08.064Z,520
2018-07-08T05:41:08.604Z,636
2018-07-08T05:42:08.093Z,768
2018-07-08T05:43:08.116Z,688
2018-07-08T05:44:08.137Z,836
2018-07-08T05:45:08.167Z,644
2018-07-08T05:46:08.468Z,500
2018-07-08T05:47:08.494Z,460
2018-07-08T05:48:08.228Z,464
2018-07-08T05:49:08.804Z,488
2018-07-08T05:50:08.696Z,520
2018-07-08T05:51:08.562Z,548
2018-07-08T05:52:08.857Z,668
2018-07-08T05:53:08.335Z,700
2018-07-08T05:54:08.365Z,632
2018-07-08T05:55:08.911Z,668
2018-07-08T05:56:08.683Z,608
2018-07-08T05:57:08.702Z,452
2018-07-08T05:58:08.479Z,448
2018-07-08T05:59:09.034Z,468
2018-07-08T06:00:09.033Z,652
2018-07-08T06:01:08.517Z,892
2018-07-08T06:02:08.810Z,792
2018-07-08T06:03:08.826Z,864
2018-07-08T06:04:09.115Z,1192
2018-07-08T06:05:09.145Z,1088
2018-07-08T06:06:08.909Z,1272
2018-07-08T06:07:08.654Z,1368
2018-07-08T06:08:08.960Z,1332
2018-07-08T06:09:09.232Z,1252
2018-07-08T06:10:08.987Z,1376
2018-07-08T06:11:09.016Z,1496
2018-07-08T06:12:09.032Z,1164
2018-07-08T06:13:09.056Z,1164
2018-07-08T06:14:08.821Z,1072
2018-07-08T06:15:09.089Z,1108
2018-07-08T06:16:08.848Z,1256
2018-07-08T06:17:09.147Z,1336
2018-07-08T06:18:09.247Z,1404
2018-07-08T06:19:09.205Z,1316
2018-07-08T06:20:09.476Z,1148
2018-07-08T06:21:09.228Z,1160
2018-07-08T06:22:09.267Z,1144
2018-07-08T06:23:09.549Z,1520
2018-07-08T06:24:09.028Z,1672
2018-07-08T06:25:09.335Z,1588
2018-07-08T06:26:09.468Z,1748
2018-07-08T06:27:09.365Z,1292
2018-07-08T06:28:09.387Z,1080
2018-07-08T06:29:09.404Z,1228
2018-07-08T06:30:09.432Z,1124
2018-07-08T06:31:09.445Z,1264
2018-07-08T06:32:09.473Z,1532
2018-07-08T06:33:09.496Z,1336
2018-07-08T06:34:09.519Z,1124
2018-07-08T06:35:09.578Z,1016
2018-07-08T06:36:10.029Z,976
2018-07-08T06:37:09.875Z,1180
2018-07-08T06:38:09.891Z,1404
2018-07-08T06:39:10.051Z,1564
2018-07-08T06:40:09.649Z,1620
2018-07-08T06:41:09.934Z,1612
2018-07-08T06:42:09.960Z,1544
2018-07-08T06:43:10.078Z,1328
2018-07-08T06:44:09.896Z,1260
2018-07-08T06:45:09.758Z,1140
2018-07-08T06:46:10.054Z,952
2018-07-08T06:47:09.807Z,768
2018-07-08T06:48:09.831Z,784
2018-07-08T06:49:10.135Z,1112
2018-07-08T06:50:09.620Z,1392
2018-07-08T06:51:10.204Z,1500
2018-07-08T06:52:10.149Z,1148
2018-07-08T06:53:10.018Z,1016
2018-07-08T06:54:10.139Z,1372
2018-07-08T06:55:09.770Z,1660
2018-07-08T06:56:09.741Z,1548
2018-07-08T06:57:10.038Z,1148
2018-07-08T06:58:10.058Z,1032
2018-07-08T06:59:09.542Z,916
2018-07-08T07:00:09.915Z,932
2018-07-08T07:01:10.126Z,1336
2018-07-08T07:02:10.590Z,1528
2018-07-08T07:03:10.165Z,1144
2018-07-08T07:04:10.466Z,956
2018-07-08T07:05:09.945Z,940
2018-07-08T07:06:10.241Z,1032
2018-07-08T07:07:10.521Z,1152
2018-07-08T07:08:10.308Z,1724
2018-07-08T07:09:10.036Z,1952
2018-07-08T07:10:10.056Z,1672
2018-07-08T07:11:10.367Z,1492
2018-07-08T07:12:10.638Z,1588
2018-07-08T07:13:10.662Z,1332
2018-07-08T07:14:10.443Z,1028
2018-07-08T07:15:10.725Z,804
2018-07-08T07:16:10.465Z,704
2018-07-08T07:17:10.217Z,796
2018-07-08T07:18:10.508Z,964
2018-07-08T07:19:10.796Z,1032
2018-07-08T07:20:10.825Z,1172
2018-07-08T07:21:10.580Z,1272
2018-07-08T07:22:10.333Z,1412
2018-07-08T07:23:11.299Z,1480
2018-07-08T07:24:10.646Z,1444
2018-07-08T07:25:10.946Z,1392
2018-07-08T07:26:10.962Z,1520
2018-07-08T07:27:10.717Z,1776
2018-07-08T07:28:10.738Z,2048
2018-07-08T07:29:11.032Z,2108
2018-07-08T07:30:11.076Z,2096
2018-07-08T07:31:10.809Z,2172
2018-07-08T07:32:10.826Z,2168
2018-07-08T07:33:10.850Z,2036
2018-07-08T07:34:11.139Z,1916
2018-07-08T07:35:11.168Z,1820
2018-07-08T07:36:10.920Z,1532
2018-07-08T07:37:11.665Z,1140
2018-07-08T07:38:10.751Z,1308
2018-07-08T07:39:11.265Z,1404
2018-07-08T07:40:11.296Z,1112
2018-07-08T07:41:11.038Z,1084
2018-07-08T07:42:11.328Z,1164
2018-07-08T07:43:11.355Z,1132
2018-07-08T07:44:10.840Z,956
2018-07-08T07:45:11.145Z,804
2018-07-08T07:46:11.163Z,788
2018-07-08T07:47:11.446Z,784
2018-07-08T07:48:10.663Z,772
2018-07-08T07:49:10.954Z,776
2018-07-08T07:50:11.263Z,744
2018-07-08T07:51:11.329Z,696
2018-07-08T07:52:11.291Z,748
2018-07-08T07:53:11.587Z,680
2018-07-08T07:54:11.605Z,748
2018-07-08T07:55:11.625Z,688
2018-07-08T07:56:11.388Z,720
2018-07-08T07:57:11.684Z,760
2018-07-08T07:58:11.704Z,928
2018-07-08T07:59:11.530Z,1104
2018-07-08T08:00:11.803Z,1304
2018-07-08T08:01:11.507Z,1428
2018-07-08T08:02:11.811Z,1476
2018-07-08T08:03:11.557Z,1484
2018-07-08T08:04:11.307Z,1488
2018-07-08T08:05:11.592Z,1772
2018-07-08T08:06:11.616Z,2008
2018-07-08T08:07:11.908Z,2188
2018-07-08T08:08:11.931Z,2172
2018-07-08T08:09:11.687Z,1892
2018-07-08T08:10:11.446Z,1712
2018-07-08T08:11:12.165Z,1936
2018-07-08T08:12:11.757Z,2020
2018-07-08T08:13:11.833Z,1808
2018-07-08T08:14:11.887Z,1748
2018-07-08T08:15:12.103Z,1844
2018-07-08T08:16:11.854Z,2044
2018-07-08T08:17:12.161Z,2244
2018-07-08T08:18:11.636Z,2184
2018-07-08T08:19:11.923Z,1720
2018-07-08T08:20:11.946Z,1780
2018-07-08T08:21:12.253Z,2180
2018-07-08T08:22:12.352Z,2160
2018-07-08T08:23:11.768Z,1984
2018-07-08T08:24:11.825Z,1788
2018-07-08T08:25:11.800Z,1980
2018-07-08T08:26:12.095Z,2368
2018-07-08T08:27:12.113Z,2560
2018-07-08T08:28:12.411Z,2480
2018-07-08T08:29:12.433Z,2536
2018-07-08T08:30:11.927Z,2148
2018-07-08T08:31:12.674Z,2264
2018-07-08T08:32:12.237Z,2908
2018-07-08T08:33:12.528Z,3052
2018-07-08T08:34:12.279Z,3268
2018-07-08T08:35:12.609Z,2868
2018-07-08T08:36:12.595Z,2988
2018-07-08T08:37:12.353Z,3120
2018-07-08T08:38:12.781Z,3116
2018-07-08T08:39:12.672Z,2928
2018-07-08T08:40:12.697Z,2732
2018-07-08T08:41:12.476Z,2688
2018-07-08T08:42:12.474Z,2232
2018-07-08T08:43:12.365Z,2008
2018-07-08T08:44:13.019Z,1772
2018-07-08T08:45:12.281Z,1596
2018-07-08T08:46:12.307Z,1944
2018-07-08T08:47:12.865Z,2564
2018-07-08T08:48:12.651Z,2916
2018-07-08T08:49:12.681Z,2828
2018-07-08T08:50:12.940Z,2724
2018-07-08T08:51:12.300Z,2840
2018-07-08T08:52:12.715Z,3016
2018-07-08T08:53:12.812Z,3132
2018-07-08T08:54:12.774Z,3152
2018-07-08T08:55:12.530Z,3156
2018-07-08T08:56:13.118Z,3152
2018-07-08T08:57:12.842Z,3008
2018-07-08T08:58:12.877Z,2880
2018-07-08T08:59:12.648Z,2900
2018-07-08T09:00:13.188Z,3144
2018-07-08T09:01:13.015Z,3336
2018-07-08T09:02:12.979Z,3200
2018-07-08T09:03:12.991Z,3108
2018-07-08T09:04:13.378Z,3200
2018-07-08T09:05:13.539Z,3248
2018-07-08T09:06:13.063Z,3412
2018-07-08T09:07:13.247Z,3524
2018-07-08T09:08:13.124Z,3352
2018-07-08T09:09:13.401Z,2748
2018-07-08T09:10:13.435Z,2676
2018-07-08T09:11:13.461Z,2584
2018-07-08T09:12:12.955Z,2484
2018-07-08T09:13:13.247Z,2372
2018-07-08T09:14:13.265Z,2864
2018-07-08T09:15:13.375Z,2600
2018-07-08T09:16:13.579Z,2132
2018-07-08T09:17:13.812Z,1908
2018-07-08T09:18:13.636Z,1884
2018-07-08T09:19:13.660Z,2108
2018-07-08T09:20:13.147Z,2720
2018-07-08T09:21:13.436Z,2944
2018-07-08T09:22:13.671Z,3112
2018-07-08T09:23:13.788Z,3384
2018-07-08T09:24:13.991Z,3256
2018-07-08T09:25:13.819Z,3136
2018-07-08T09:26:13.836Z,3340
2018-07-08T09:27:13.860Z,3160
2018-07-08T09:28:13.619Z,3488
2018-07-08T09:29:13.670Z,2940
2018-07-08T09:30:13.789Z,2864
2018-07-08T09:31:13.518Z,3428
2018-07-08T09:32:13.456Z,3348
2018-07-08T09:33:14.175Z,2264
2018-07-08T09:34:13.627Z,1524
2018-07-08T09:35:14.066Z,1376
2018-07-08T09:36:13.828Z,1796
2018-07-08T09:37:14.341Z,1556
2018-07-08T09:38:13.889Z,1808
2018-07-08T09:39:14.125Z,1576
2018-07-08T09:40:13.936Z,1684
2018-07-08T09:41:13.949Z,1712
2018-07-08T09:42:13.981Z,1316
2018-07-08T09:43:14.268Z,1592
2018-07-08T09:44:14.324Z,2692
2018-07-08T09:45:14.056Z,3284
2018-07-08T09:46:14.088Z,3636
2018-07-08T09:47:14.112Z,4108
2018-07-08T09:48:14.130Z,3684
2018-07-08T09:49:13.891Z,3332
2018-07-08T09:50:13.686Z,4036
2018-07-08T09:51:14.491Z,4196
2018-07-08T09:52:14.236Z,3908
2018-07-08T09:53:14.537Z,3212
2018-07-08T09:54:14.297Z,3508
2018-07-08T09:55:14.128Z,2644
2018-07-08T09:56:14.608Z,2548
2018-07-08T09:57:14.371Z,2572
2018-07-08T09:58:14.858Z,2492
2018-07-08T09:59:14.729Z,3420
2018-07-08T10:00:14.174Z,3484
2018-07-08T10:01:14.474Z,2732
2018-07-08T10:02:14.759Z,2536
2018-07-08T10:03:14.531Z,1980
2018-07-08T10:04:14.813Z,2096
2018-07-08T10:05:14.847Z,2868
2018-07-08T10:06:14.427Z,3404
2018-07-08T10:07:14.674Z,3448
2018-07-08T10:08:14.922Z,3048
2018-07-08T10:09:14.679Z,2900
2018-07-08T10:10:14.981Z,2644
2018-07-08T10:11:15.052Z,2908
2018-07-08T10:12:15.039Z,2892
2018-07-08T10:13:15.053Z,3088
2018-07-08T10:14:15.237Z,3316
2018-07-08T10:15:15.111Z,4228
2018-07-08T10:16:15.368Z,4004
2018-07-08T10:17:15.280Z,2944
2018-07-08T10:18:15.264Z,2992
2018-07-08T10:19:14.985Z,3788
2018-07-08T10:20:15.730Z,4240
2018-07-08T10:21:15.274Z,3816
2018-07-08T10:22:15.524Z,3692
2018-07-08T10:23:15.059Z,3664
2018-07-08T10:24:15.081Z,3904
2018-07-08T10:25:15.218Z,3600
2018-07-08T10:26:15.132Z,3716
2018-07-08T10:27:15.285Z,3628
2018-07-08T10:28:15.596Z,3044
2018-07-08T10:29:15.656Z,2860
2018-07-08T10:30:15.547Z,2496
2018-07-08T10:31:15.266Z,3024
2018-07-08T10:32:15.577Z,4008
2018-07-08T10:33:15.320Z,4036
2018-07-08T10:34:15.358Z,4180
2018-07-08T10:35:15.392Z,3824
2018-07-08T10:36:15.149Z,4488
2018-07-08T10:37:15.169Z,4912
2018-07-08T10:38:15.634Z,4320
2018-07-08T10:39:15.756Z,4000
2018-07-08T10:40:15.244Z,3832
2018-07-08T10:41:15.587Z,4360
2018-07-08T10:42:15.838Z,3560
2018-07-08T10:43:15.652Z,3968
2018-07-08T10:44:15.624Z,4824
2018-07-08T10:45:15.673Z,5012
2018-07-08T10:46:15.949Z,5060
2018-07-08T10:47:15.703Z,4804
2018-07-08T10:48:15.464Z,4824
2018-07-08T10:49:15.794Z,5136
2018-07-08T10:50:16.276Z,4812
2018-07-08T10:51:15.818Z,3956
2018-07-08T10:52:16.110Z,3096
2018-07-08T10:53:15.899Z,3344
2018-07-08T10:54:15.907Z,3136
2018-07-08T10:55:15.995Z,3340
2018-07-08T10:56:15.959Z,3420
2018-07-08T10:57:15.758Z,4104
2018-07-08T10:58:16.286Z,3988
2018-07-08T10:59:16.409Z,3804
2018-07-08T11:00:16.332Z,3768
2018-07-08T11:01:16.364Z,3996
2018-07-08T11:02:16.399Z,3680
2018-07-08T11:03:16.424Z,4028
2018-07-08T11:04:16.638Z,5068
2018-07-08T11:05:16.206Z,5068
2018-07-08T11:06:16.696Z,4268
2018-07-08T11:07:16.269Z,4472
2018-07-08T11:08:16.559Z,4400
2018-07-08T11:09:16.587Z,3496
2018-07-08T11:10:15.818Z,2948
2018-07-08T11:11:16.381Z,3888
2018-07-08T11:12:16.679Z,3996
2018-07-08T11:13:16.704Z,3628
2018-07-08T11:14:16.198Z,3500
2018-07-08T11:15:16.531Z,2748
2018-07-08T11:16:16.793Z,2568
2018-07-08T11:17:16.017Z,3008
2018-07-08T11:18:16.848Z,3280
2018-07-08T11:19:16.606Z,3516
2018-07-08T11:20:16.720Z,3608
2018-07-08T11:21:16.680Z,4520
2018-07-08T11:22:16.967Z,5452
2018-07-08T11:23:16.455Z,5676
2018-07-08T11:24:16.746Z,5932
2018-07-08T11:25:17.050Z,5232
2018-07-08T11:26:17.077Z,4824
2018-07-08T11:27:17.100Z,3336
2018-07-08T11:28:17.015Z,2560
2018-07-08T11:29:16.895Z,3188
2018-07-08T11:30:16.390Z,3144
2018-07-08T11:31:16.951Z,3528
2018-07-08T11:32:16.991Z,4520
2018-07-08T11:33:17.274Z,5264
2018-07-08T11:34:17.036Z,4616
2018-07-08T11:35:17.068Z,2740
2018-07-08T11:36:17.097Z,2432
2018-07-08T11:37:17.132Z,3564
2018-07-08T11:38:17.426Z,3516
2018-07-08T11:39:17.591Z,3536
2018-07-08T11:40:17.216Z,3516
2018-07-08T11:41:17.525Z,3476
2018-07-08T11:42:17.273Z,3560
2018-07-08T11:43:17.042Z,3612
2018-07-08T11:44:17.332Z,4076
2018-07-08T11:45:17.364Z,2240
2018-07-08T11:46:17.692Z,1848
2018-07-08T11:47:17.697Z,3724
2018-07-08T11:48:17.725Z,4064
2018-07-08T11:49:17.753Z,4040
2018-07-08T11:50:17.786Z,3828
2018-07-08T11:51:17.276Z,3572
2018-07-08T11:52:17.844Z,4224
2018-07-08T11:53:17.600Z,2692
2018-07-08T11:54:17.899Z,2692
2018-07-08T11:55:17.948Z,2416
2018-07-08T11:56:17.967Z,4392
2018-07-08T11:57:17.721Z,5840
2018-07-08T11:58:18.023Z,5312
2018-07-08T11:59:17.513Z,4956
2018-07-08T12:00:17.811Z,4976
2018-07-08T12:01:17.845Z,5140
2018-07-08T12:02:17.843Z,5752
2018-07-08T12:03:18.167Z,5208
2018-07-08T12:04:17.934Z,6508
2018-07-08T12:05:18.336Z,5524
2018-07-08T12:06:18.347Z,5408
2018-07-08T12:07:18.300Z,4480
2018-07-08T12:08:18.097Z,4324
2018-07-08T12:09:18.357Z,4628
2018-07-08T12:10:18.659Z,6736
2018-07-08T12:11:18.419Z,4660
2018-07-08T12:12:18.184Z,4856
2018-07-08T12:13:18.469Z,4864
2018-07-08T12:14:18.238Z,4752
2018-07-08T12:15:18.069Z,4692
2018-07-08T12:16:18.302Z,5000
2018-07-08T12:17:18.606Z,5076
2018-07-08T12:18:18.394Z,5144
2018-07-08T12:19:18.440Z,6912
2018-07-08T12:20:18.597Z,6592
2018-07-08T12:21:19.098Z,5260
2018-07-08T12:22:18.747Z,4372
2018-07-08T12:23:18.792Z,4296
2018-07-08T12:24:18.543Z,5472
2018-07-08T12:25:18.590Z,4780
2018-07-08T12:26:18.880Z,3728
2018-07-08T12:27:18.650Z,4352
2018-07-08T12:28:18.963Z,4352
2018-07-08T12:29:18.743Z,4504
2018-07-08T12:30:19.024Z,4520
2018-07-08T12:31:18.498Z,4560
2018-07-08T12:32:18.645Z,4836
2018-07-08T12:33:19.096Z,5408
2018-07-08T12:34:19.122Z,6224
2018-07-08T12:35:19.160Z,7132
2018-07-08T12:36:18.703Z,6164
2018-07-08T12:37:18.608Z,5520
2018-07-08T12:38:18.723Z,4468
2018-07-08T12:39:19.439Z,3720
2018-07-08T12:40:19.484Z,3500
2018-07-08T12:41:18.845Z,3588
2018-07-08T12:42:19.114Z,3288
2018-07-08T12:43:19.289Z,3020
2018-07-08T12:44:19.997Z,3116
2018-07-08T12:45:19.422Z,3528
2018-07-08T12:46:19.693Z,3840
2018-07-08T12:47:19.536Z,4964
2018-07-08T12:48:19.570Z,5476
2018-07-08T12:49:19.340Z,6540
2018-07-08T12:50:19.367Z,5764
2018-07-08T12:51:19.526Z,5620
2018-07-08T12:52:19.487Z,5416
2018-07-08T12:53:19.498Z,5312
2018-07-08T12:54:19.598Z,4720
2018-07-08T12:55:19.294Z,6340
2018-07-08T12:56:19.556Z,4464
2018-07-08T12:57:20.036Z,4024
2018-07-08T12:58:19.894Z,4860
2018-07-08T12:59:19.699Z,5548
2018-07-08T13:00:20.148Z,5864
2018-07-08T13:01:19.715Z,5892
2018-07-08T13:02:19.745Z,4844
2018-07-08T13:03:20.061Z,5592
2018-07-08T13:04:19.914Z,6332
2018-07-08T13:05:19.837Z,4580
2018-07-08T13:06:20.298Z,2824
2018-07-08T13:07:19.913Z,2820
2018-07-08T13:08:19.944Z,5104
2018-07-08T13:09:19.729Z,4876
2018-07-08T13:10:20.291Z,5436
2018-07-08T13:11:20.490Z,5900
2018-07-08T13:12:20.340Z,3528
2018-07-08T13:13:20.167Z,5924
2018-07-08T13:14:20.405Z,7700
2018-07-08T13:15:20.438Z,6004
2018-07-08T13:16:20.203Z,6056
2018-07-08T13:17:20.510Z,7164
2018-07-08T13:18:20.533Z,5600
2018-07-08T13:19:20.299Z,3452
2018-07-08T13:20:20.608Z,3432
2018-07-08T13:21:20.160Z,3468
2018-07-08T13:22:20.404Z,3020
2018-07-08T13:23:20.739Z,3056
2018-07-08T13:24:20.727Z,3348
2018-07-08T13:25:20.500Z,4088
2018-07-08T13:26:21.212Z,6928
2018-07-08T13:27:20.830Z,4164
2018-07-08T13:28:20.871Z,4356
2018-07-08T13:29:20.367Z,3632
2018-07-08T13:30:20.933Z,1920
2018-07-08T13:31:20.702Z,2752
2018-07-08T13:32:21.619Z,4376
2018-07-08T13:33:20.782Z,4992
2018-07-08T13:34:20.635Z,4428
2018-07-08T13:35:20.530Z,2432
2018-07-08T13:36:21.133Z,1768
2018-07-08T13:37:20.869Z,1644
2018-07-08T13:38:21.024Z,1756
2018-07-08T13:39:21.302Z,1836
2018-07-08T13:40:20.994Z,1620
2018-07-08T13:41:21.287Z,1544
2018-07-08T13:42:21.344Z,1860
2018-07-08T13:43:21.363Z,1572
2018-07-08T13:44:21.125Z,1188